createdAt,value
2023-01-13T00:00:16.038Z,28.52
2023-01-13T00:02:42.996Z,30.55
2023-01-13T00:05:10.292Z,26.65
2023-01-13T00:07:40.414Z,33.17
2023-01-13T00:10:10.074Z,30.88
2023-01-13T00:12:41.671Z,38.23
2023-01-13T00:15:09.136Z,26.42
2023-01-13T00:17:35.750Z,40.65
2023-01-13T00:20:02.778Z,29.38
2023-01-13T00:22:29.449Z,34.00
2023-01-13T00:24:58.225Z,37.85
2023-01-13T00:27:25.543Z,36.85
2023-01-13T00:29:52.320Z,34.25
2023-01-13T00:32:19.026Z,33.17
2023-01-13T00:34:45.860Z,30.27
2023-01-13T00:37:14.685Z,34.67
2023-01-13T00:39:41.881Z,35.08
2023-01-13T00:42:27.512Z,35.35
2023-01-13T00:44:54.215Z,32.00
2023-01-13T00:47:20.787Z,31.10
2023-01-13T00:49:47.693Z,34.97
2023-01-13T00:52:14.288Z,34.78
2023-01-13T00:54:41.047Z,36.55
2023-01-13T00:57:08.614Z,36.90
2023-01-13T00:59:35.202Z,35.70
2023-01-13T01:02:02.074Z,31.88
2023-01-13T01:04:28.853Z,40.20
2023-01-13T01:06:55.496Z,35.47
2023-01-13T01:09:22.265Z,35.25
2023-01-13T01:11:48.966Z,40.40
2023-01-13T01:14:15.610Z,40.25
2023-01-13T01:16:42.528Z,38.78
2023-01-13T01:19:10.515Z,37.33
2023-01-13T01:21:37.218Z,34.00
2023-01-13T01:24:05.106Z,37.20
2023-01-13T01:26:32.909Z,35.10
2023-01-13T01:29:02.139Z,37.67
2023-01-13T01:31:32.193Z,30.65
2023-01-13T01:34:00.192Z,42.00
2023-01-13T01:36:29.935Z,35.85
2023-01-13T01:38:58.583Z,37.33
2023-01-13T01:41:28.814Z,34.92
2023-01-13T01:44:40.304Z,27.20
2023-01-13T01:47:07.869Z,33.35
2023-01-13T01:49:36.904Z,28.75
2023-01-13T01:52:21.037Z,32.83
2023-01-13T01:55:22.538Z,34.45
2023-01-13T01:57:58.795Z,35.65
2023-01-13T02:00:28.369Z,33.20
2023-01-13T02:02:56.134Z,28.93
2023-01-13T02:05:23.754Z,31.23
2023-01-13T02:07:54.796Z,33.80
2023-01-13T02:10:24.210Z,35.70
2023-01-13T02:12:52.764Z,33.00
2023-01-13T02:15:46.871Z,32.85
2023-01-13T02:18:46.138Z,38.92
2023-01-13T02:21:38.391Z,35.88
2023-01-13T02:24:53.838Z,38.58
2023-01-13T02:27:41.620Z,43.50
2023-01-13T02:30:35.639Z,32.92
2023-01-13T02:33:27.366Z,40.03
2023-01-13T02:35:59.852Z,30.65
2023-01-13T02:38:54.886Z,34.22
2023-01-13T02:41:49.311Z,31.52
2023-01-13T02:44:24.318Z,30.88
2023-01-13T02:47:04.139Z,30.55
2023-01-13T02:49:43.602Z,36.72
2023-01-13T02:52:20.339Z,35.13
2023-01-13T02:54:53.447Z,35.58
2023-01-13T02:57:22.152Z,33.03
2023-01-13T02:59:49.399Z,32.63
2023-01-13T03:02:21.532Z,33.38
2023-01-13T03:04:57.021Z,33.28
2023-01-13T03:07:57.593Z,31.27
2023-01-13T03:10:38.119Z,34.08
2023-01-13T03:13:20.116Z,32.42
2023-01-13T03:16:01.413Z,34.80
2023-01-13T03:18:50.128Z,34.20
2023-01-13T03:21:32.808Z,34.70
2023-01-13T03:24:13.803Z,31.63
2023-01-13T03:26:58.305Z,32.63
2023-01-13T03:29:31.754Z,35.05
2023-01-13T03:32:34.858Z,35.05
2023-01-13T03:35:11.205Z,30.77
2023-01-13T03:37:42.502Z,32.72
2023-01-13T03:40:17.501Z,31.55
2023-01-13T03:43:08.001Z,36.72
2023-01-13T03:45:38.102Z,32.50
2023-01-13T03:48:10.946Z,32.70
2023-01-13T03:50:43.869Z,37.00
2023-01-13T03:53:16.206Z,36.90
2023-01-13T03:55:51.752Z,31.80
2023-01-13T03:58:25.683Z,31.75
2023-01-13T04:01:00.079Z,31.65
2023-01-13T04:03:36.497Z,36.95
2023-01-13T04:06:22.537Z,37.45
2023-01-13T04:08:55.632Z,32.20
2023-01-13T04:11:33.612Z,35.78
2023-01-13T04:14:03.425Z,33.92
2023-01-13T04:16:30.189Z,35.92
2023-01-13T04:18:56.937Z,29.15
2023-01-13T04:21:23.685Z,29.13
2023-01-13T04:23:51.576Z,36.58
2023-01-13T04:26:19.920Z,34.45
2023-01-13T04:28:46.962Z,38.47
2023-01-13T04:31:13.719Z,35.42
2023-01-13T04:33:40.748Z,35.63
2023-01-13T04:36:07.739Z,39.47
2023-01-13T04:38:34.424Z,30.25
2023-01-13T04:41:01.534Z,35.03
2023-01-13T04:43:28.371Z,36.78
2023-01-13T04:45:55.199Z,34.10
2023-01-13T04:48:21.925Z,40.47
2023-01-13T04:50:48.668Z,38.25
2023-01-13T04:53:15.381Z,37.08
2023-01-13T04:55:42.318Z,37.58
2023-01-13T04:58:10.535Z,32.88
2023-01-13T05:00:37.555Z,37.97
2023-01-13T05:03:05.114Z,39.72
2023-01-13T05:05:32.329Z,34.50
2023-01-13T05:07:59.036Z,35.72
2023-01-13T05:10:26.675Z,37.30
2023-01-13T05:13:11.855Z,40.35
2023-01-13T05:15:59.005Z,32.72
2023-01-13T05:18:26.777Z,30.45
2023-01-13T05:20:53.442Z,32.17
2023-01-13T05:23:38.619Z,31.20
2023-01-13T05:26:06.003Z,31.40
2023-01-13T05:28:34.012Z,36.55
2023-01-13T05:31:01.534Z,34.65
2023-01-13T05:33:28.329Z,34.17
2023-01-13T05:35:55.065Z,42.05
2023-01-13T05:38:21.864Z,36.03
2023-01-13T05:41:07.393Z,37.42
2023-01-13T05:43:35.046Z,35.83
2023-01-13T05:46:05.302Z,37.47
2023-01-13T05:48:34.942Z,29.98
2023-01-13T05:51:03.586Z,33.40
2023-01-13T05:53:30.786Z,32.88
2023-01-13T05:55:57.982Z,33.72
2023-01-13T05:58:26.800Z,30.70
2023-01-13T06:00:54.000Z,32.72
2023-01-13T06:03:20.658Z,29.73
2023-01-13T06:05:48.788Z,31.83
2023-01-13T06:08:15.573Z,31.20
2023-01-13T06:10:42.217Z,33.15
2023-01-13T06:13:09.208Z,28.63
2023-01-13T06:15:36.105Z,32.30
2023-01-13T06:18:04.747Z,31.88
2023-01-13T06:20:32.344Z,30.67
2023-01-13T06:22:59.605Z,30.10
2023-01-13T06:25:29.118Z,27.77
2023-01-13T06:27:59.233Z,26.85
2023-01-13T06:30:29.885Z,28.73
2023-01-13T06:33:01.895Z,29.88
2023-01-13T06:35:33.315Z,32.28
2023-01-13T06:38:03.899Z,26.85
2023-01-13T06:43:17.341Z,30.13
2023-01-13T06:45:47.315Z,27.92
2023-01-13T06:48:14.476Z,28.57
2023-01-13T06:50:42.423Z,26.15
2023-01-13T06:53:09.885Z,25.00
2023-01-13T06:55:36.990Z,29.15
2023-01-13T06:58:03.767Z,24.20
2023-01-13T07:00:32.369Z,29.58
2023-01-13T07:03:16.532Z,30.92
2023-01-13T07:05:50.779Z,27.85
2023-01-13T07:08:17.664Z,23.60
2023-01-13T07:10:44.559Z,23.52
2023-01-13T07:13:29.986Z,26.60
2023-01-13T07:16:02.258Z,26.15
2023-01-13T07:18:32.037Z,22.77
2023-01-13T07:21:09.581Z,26.30
2023-01-13T07:23:39.711Z,26.98
2023-01-13T07:26:08.289Z,27.42
2023-01-13T07:28:35.033Z,32.40
2023-01-13T07:31:02.278Z,25.63
2023-01-13T07:33:32.960Z,30.83
2023-01-13T07:36:02.599Z,24.33
2023-01-13T07:38:30.930Z,25.92
2023-01-13T07:40:57.783Z,30.98
2023-01-13T07:43:33.446Z,27.35
2023-01-13T07:46:03.252Z,27.70
2023-01-13T07:48:32.001Z,26.10
2023-01-13T07:51:07.635Z,28.73
2023-01-13T07:53:35.131Z,28.17
2023-01-13T07:56:03.679Z,28.20
2023-01-13T07:58:30.751Z,30.30
2023-01-13T08:00:58.192Z,21.73
2023-01-13T08:03:25.343Z,29.05
2023-01-13T08:05:52.707Z,24.60
2023-01-13T08:08:19.729Z,29.00
2023-01-13T08:10:47.617Z,28.85
2023-01-13T08:13:22.197Z,28.17
2023-01-13T08:15:52.049Z,25.00
2023-01-13T08:18:22.148Z,27.60
2023-01-13T08:20:53.052Z,27.55
2023-01-13T08:23:21.283Z,28.02
2023-01-13T08:25:48.612Z,26.95
2023-01-13T08:28:16.297Z,27.30
2023-01-13T08:30:43.731Z,27.85
2023-01-13T08:33:12.015Z,27.63
2023-01-13T08:35:40.628Z,28.48
2023-01-13T08:38:08.218Z,28.58
2023-01-13T08:40:35.665Z,31.17
2023-01-13T08:43:03.221Z,26.05
2023-01-13T08:45:30.260Z,25.88
2023-01-13T08:47:57.480Z,25.45
2023-01-13T08:50:24.581Z,33.55
2023-01-13T08:52:51.318Z,29.52
2023-01-13T08:55:18.120Z,26.20
2023-01-13T08:57:45.126Z,29.88
2023-01-13T09:00:13.040Z,33.75
2023-01-13T09:02:39.845Z,26.98
2023-01-13T09:05:08.584Z,28.23
2023-01-13T09:07:37.303Z,29.02
2023-01-13T09:10:05.865Z,31.02
2023-01-13T09:12:51.153Z,30.55
2023-01-13T09:15:18.662Z,24.98
2023-01-13T09:17:45.976Z,28.92
2023-01-13T09:20:13.708Z,25.65
2023-01-13T09:22:41.542Z,27.15
2023-01-13T09:25:09.075Z,27.50
2023-01-13T09:27:36.621Z,24.55
2023-01-13T09:30:03.955Z,29.05
2023-01-13T09:32:30.783Z,30.17
2023-01-13T09:35:00.463Z,26.25
2023-01-13T09:37:38.522Z,31.13
2023-01-13T09:40:18.365Z,33.72
2023-01-13T09:43:35.600Z,31.52
2023-01-13T09:46:31.573Z,33.97
2023-01-13T09:48:59.863Z,27.95
2023-01-13T09:51:31.776Z,32.03
2023-01-13T09:54:27.982Z,33.65
2023-01-13T09:56:54.728Z,30.23
2023-01-13T09:59:21.660Z,35.22
2023-01-13T10:02:00.366Z,24.58
2023-01-13T10:04:28.050Z,35.22
2023-01-13T10:07:03.856Z,27.20
2023-01-13T10:09:36.707Z,33.78
2023-01-13T10:12:24.556Z,32.78
2023-01-13T10:14:57.364Z,25.67
2023-01-13T10:18:02.294Z,34.03
2023-01-13T10:20:34.433Z,28.48
2023-01-13T10:23:14.544Z,31.35
2023-01-13T10:25:47.447Z,22.90
2023-01-13T10:28:19.448Z,23.73
2023-01-13T10:30:47.771Z,31.52
2023-01-13T10:33:21.403Z,25.63
2023-01-13T10:35:59.535Z,33.65
2023-01-13T10:38:35.559Z,34.40
2023-01-13T10:41:06.386Z,27.60
2023-01-13T10:43:33.088Z,25.10
2023-01-13T10:46:06.008Z,30.45
2023-01-13T10:49:00.114Z,26.98
2023-01-13T10:51:43.245Z,27.75
2023-01-13T10:54:13.246Z,29.95
2023-01-13T10:56:42.277Z,26.40
2023-01-13T10:59:29.961Z,27.58
2023-01-13T11:02:16.247Z,27.95
2023-01-13T11:04:54.526Z,23.23
2023-01-13T11:07:35.810Z,29.75
2023-01-13T11:10:22.999Z,35.42
2023-01-13T11:13:08.723Z,22.45
2023-01-13T11:15:54.139Z,28.52
2023-01-13T11:18:34.573Z,26.40
2023-01-13T11:21:06.954Z,24.17
2023-01-13T11:23:50.197Z,25.10
2023-01-13T11:26:27.357Z,26.27
2023-01-13T11:29:15.061Z,26.77
2023-01-13T11:32:00.739Z,27.55
2023-01-13T11:34:32.589Z,27.63
2023-01-13T11:37:02.246Z,28.75
2023-01-13T11:39:47.772Z,25.97
2023-01-13T11:42:27.039Z,22.25
2023-01-13T11:45:06.057Z,23.92
2023-01-13T11:47:35.198Z,26.30
2023-01-13T11:50:02.582Z,24.45
2023-01-13T11:53:07.777Z,22.63
2023-01-13T11:56:06.739Z,22.30
2023-01-13T11:58:51.464Z,24.88
2023-01-13T12:01:43.798Z,25.52
2023-01-13T12:04:23.745Z,22.80
2023-01-13T12:07:22.149Z,25.80
2023-01-13T12:10:03.663Z,30.48
2023-01-13T12:12:51.639Z,23.40
2023-01-13T12:15:21.602Z,24.08
2023-01-13T12:18:25.421Z,24.38
2023-01-13T12:21:01.624Z,25.67
2023-01-13T12:23:35.754Z,25.13
2023-01-13T12:26:10.654Z,26.05
2023-01-13T12:28:54.948Z,23.27
2023-01-13T12:31:23.529Z,23.85
2023-01-13T12:33:59.083Z,18.67
2023-01-13T12:36:40.331Z,23.83
2023-01-13T12:39:24.095Z,25.60
2023-01-13T12:42:36.205Z,19.02
2023-01-13T12:45:12.506Z,22.48
2023-01-13T12:47:45.715Z,22.10
2023-01-13T12:50:27.401Z,24.98
2023-01-13T12:52:56.586Z,21.30
2023-01-13T12:55:33.406Z,20.23
2023-01-13T12:58:15.144Z,21.90
2023-01-13T13:00:41.857Z,21.63
2023-01-13T13:03:11.150Z,22.83
2023-01-13T13:05:59.053Z,22.67
2023-01-13T13:08:32.400Z,21.85
2023-01-13T13:11:35.061Z,21.70
2023-01-13T13:14:13.626Z,20.17
2023-01-13T13:16:49.564Z,17.58
2023-01-13T13:19:20.175Z,25.42
2023-01-13T13:24:33.827Z,21.98
2023-01-13T13:27:22.567Z,23.20
2023-01-13T13:30:13.391Z,20.83
2023-01-13T13:32:52.055Z,25.65
2023-01-13T13:35:29.105Z,18.65
2023-01-13T13:38:20.626Z,16.65
2023-01-13T13:41:06.855Z,17.83
2023-01-13T13:43:58.924Z,21.30
2023-01-13T13:46:49.547Z,20.90
2023-01-13T13:49:21.934Z,18.50
2023-01-13T13:51:49.458Z,22.23
2023-01-13T13:54:20.085Z,20.05
2023-01-13T13:59:20.953Z,18.48
2023-01-13T14:02:00.767Z,19.50
2023-01-13T14:04:32.968Z,16.27
2023-01-13T14:07:05.110Z,18.15
2023-01-13T14:09:44.179Z,23.00
2023-01-13T14:12:20.069Z,17.60
2023-01-13T14:14:48.226Z,22.88
2023-01-13T14:17:27.405Z,20.73
2023-01-13T14:20:00.406Z,20.25
2023-01-13T14:22:27.247Z,20.33
2023-01-13T14:24:58.249Z,19.02
2023-01-13T14:27:27.775Z,17.90
2023-01-13T14:29:58.146Z,21.02
2023-01-13T14:32:35.216Z,20.00
2023-01-13T14:35:02.083Z,19.65
2023-01-13T14:37:28.660Z,18.13
2023-01-13T14:39:55.831Z,18.98
2023-01-13T14:42:22.754Z,18.95
2023-01-13T14:44:52.564Z,19.77
2023-01-13T14:47:20.022Z,19.80
2023-01-13T14:50:02.264Z,20.77
2023-01-13T14:52:48.550Z,17.35
2023-01-13T14:55:21.278Z,22.95
2023-01-13T14:57:49.763Z,19.33
2023-01-13T15:00:16.830Z,21.40
2023-01-13T15:02:59.132Z,18.35
2023-01-13T15:05:25.940Z,16.13
2023-01-13T15:07:55.836Z,15.43
2023-01-13T15:10:27.673Z,17.42
2023-01-13T15:12:56.484Z,18.23
2023-01-13T15:15:39.475Z,20.02
2023-01-13T15:18:13.293Z,17.30
2023-01-13T15:20:41.867Z,19.10
2023-01-13T15:23:09.331Z,18.77
2023-01-13T15:25:39.360Z,16.42
2023-01-13T15:28:07.711Z,18.08
2023-01-13T15:30:34.568Z,20.55
2023-01-13T15:33:01.464Z,19.88
2023-01-13T15:35:29.172Z,18.17
2023-01-13T15:37:57.253Z,23.13
2023-01-13T15:40:32.579Z,21.13
2023-01-13T15:43:18.166Z,21.58
2023-01-13T15:46:04.795Z,20.70
2023-01-13T15:48:33.001Z,21.77
2023-01-13T15:51:00.903Z,19.38
2023-01-13T15:53:29.011Z,23.67
2023-01-13T15:55:57.975Z,21.75
2023-01-13T15:58:29.608Z,16.60
2023-01-13T16:00:56.672Z,22.60
2023-01-13T16:03:23.537Z,19.50
2023-01-13T16:05:50.275Z,19.33
2023-01-13T16:08:22.853Z,21.63
2023-01-13T16:10:50.740Z,17.40
2023-01-13T16:13:18.213Z,19.75
2023-01-13T16:15:48.564Z,16.70
2023-01-13T16:18:23.838Z,19.98
2023-01-13T16:20:53.970Z,18.75
2023-01-13T16:23:22.597Z,16.85
2023-01-13T16:25:50.294Z,17.95
2023-01-13T16:28:26.793Z,21.60
2023-01-13T16:30:54.050Z,19.30
2023-01-13T16:33:20.862Z,18.95
2023-01-13T16:36:10.428Z,18.92
2023-01-13T16:38:34.609Z,16.38
2023-01-13T16:41:01.759Z,15.15
2023-01-13T16:43:28.399Z,22.55
2023-01-13T16:45:55.168Z,22.70
2023-01-13T16:48:22.907Z,17.35
2023-01-13T16:50:49.630Z,18.73
2023-01-13T16:53:16.575Z,20.35
2023-01-13T16:55:43.787Z,17.05
2023-01-13T16:58:18.816Z,24.90
2023-01-13T17:00:49.089Z,22.00
2023-01-13T17:03:16.652Z,25.85
2023-01-13T17:05:46.807Z,21.25
2023-01-13T17:08:17.428Z,21.48
2023-01-13T17:13:16.409Z,21.20
2023-01-13T17:15:44.642Z,17.58
2023-01-13T17:18:13.431Z,23.65
2023-01-13T17:20:40.851Z,20.40
2023-01-13T17:23:07.985Z,21.52
2023-01-13T17:25:34.645Z,20.38
2023-01-13T17:28:01.390Z,24.20
2023-01-13T17:30:28.263Z,22.00
2023-01-13T17:32:54.961Z,25.00
2023-01-13T17:35:24.853Z,20.10
2023-01-13T17:37:53.180Z,19.85
2023-01-13T17:40:20.507Z,22.23
2023-01-13T17:42:47.224Z,21.52
2023-01-13T17:45:14.492Z,22.45
2023-01-13T17:47:41.148Z,20.83
2023-01-13T17:50:08.460Z,24.52
2023-01-13T17:52:35.457Z,24.38
2023-01-13T17:55:03.136Z,23.40
2023-01-13T17:57:29.818Z,23.02
2023-01-13T17:59:58.754Z,20.85
2023-01-13T18:02:26.413Z,26.13
2023-01-13T18:04:53.195Z,19.73
2023-01-13T18:07:20.380Z,24.95
2023-01-13T18:09:47.143Z,26.20
2023-01-13T18:12:14.618Z,19.23
2023-01-13T18:14:41.735Z,19.20
2023-01-13T18:17:08.559Z,23.58
2023-01-13T18:19:53.816Z,21.13
2023-01-13T18:22:39.238Z,24.13
2023-01-13T18:25:25.318Z,22.55
2023-01-13T18:27:52.163Z,18.38
2023-01-13T18:30:19.088Z,18.73
2023-01-13T18:32:45.904Z,20.92
2023-01-13T18:35:12.664Z,22.55
2023-01-13T18:37:42.217Z,25.05
2023-01-13T18:40:11.755Z,21.47
2023-01-13T18:42:59.124Z,26.58
2023-01-13T18:45:31.037Z,24.98
2023-01-13T18:48:00.208Z,23.10
2023-01-13T18:50:28.250Z,21.05
2023-01-13T18:52:55.675Z,22.73
2023-01-13T18:55:22.862Z,23.10
2023-01-13T18:57:50.436Z,25.27
2023-01-13T19:00:20.130Z,19.45
2023-01-13T19:02:47.439Z,20.30
2023-01-13T19:05:14.678Z,22.13
2023-01-13T19:07:43.513Z,20.83
2023-01-13T19:10:13.055Z,21.60
2023-01-13T19:12:39.875Z,27.33
2023-01-13T19:15:07.379Z,20.88
2023-01-13T19:17:35.193Z,23.10
2023-01-13T19:20:04.056Z,18.60
2023-01-13T19:22:33.767Z,23.58
2023-01-13T19:25:01.842Z,22.33
2023-01-13T19:27:28.854Z,23.42
2023-01-13T19:30:01.486Z,20.65
2023-01-13T19:32:30.942Z,20.58
2023-01-13T19:34:59.541Z,25.85
2023-01-13T19:37:30.956Z,18.58
2023-01-13T19:39:59.138Z,21.98
2023-01-13T19:42:44.957Z,20.50
2023-01-13T19:45:27.840Z,21.10
2023-01-13T19:47:56.356Z,20.08
2023-01-13T19:50:24.251Z,21.13
2023-01-13T19:52:51.247Z,23.85
2023-01-13T19:55:19.959Z,18.60
2023-01-13T19:57:47.120Z,20.42
2023-01-13T20:00:18.351Z,19.35
2023-01-13T20:02:49.451Z,23.63
2023-01-13T20:05:21.818Z,22.95
2023-01-13T20:07:50.148Z,21.38
2023-01-13T20:10:19.091Z,22.13
2023-01-13T20:12:45.883Z,19.83
2023-01-13T20:15:12.694Z,17.13
2023-01-13T20:17:41.472Z,17.20
2023-01-13T20:20:10.003Z,13.95
2023-01-13T20:22:38.402Z,13.15
2023-01-13T20:25:05.628Z,14.82
2023-01-13T20:27:32.480Z,13.55
2023-01-13T20:29:59.337Z,12.05
2023-01-13T20:32:26.153Z,12.30
2023-01-13T20:34:52.856Z,13.32
2023-01-13T20:37:19.509Z,8.60
2023-01-13T20:39:47.007Z,11.73
2023-01-13T20:42:29.205Z,12.70
2023-01-13T20:45:00.844Z,13.05
2023-01-13T20:47:29.513Z,13.20
2023-01-13T20:49:56.685Z,13.18
2023-01-13T20:52:23.585Z,15.65
2023-01-13T20:54:50.345Z,14.32
2023-01-13T20:57:17.359Z,15.10
2023-01-13T20:59:44.332Z,15.23
2023-01-13T21:02:13.625Z,17.05
2023-01-13T21:04:41.262Z,15.27
2023-01-13T21:07:08.670Z,18.80
2023-01-13T21:09:35.892Z,19.45
2023-01-13T21:12:21.473Z,15.68
2023-01-13T21:15:06.786Z,14.63
2023-01-13T21:17:52.364Z,9.75
2023-01-13T21:20:19.311Z,12.35
2023-01-13T21:22:47.844Z,12.60
2023-01-13T21:25:16.657Z,12.65
2023-01-13T21:27:44.128Z,15.50
2023-01-13T21:30:15.527Z,10.45
2023-01-13T21:32:44.459Z,8.38
2023-01-13T21:35:12.978Z,12.55
2023-01-13T21:37:41.430Z,11.77
2023-01-13T21:40:10.327Z,12.52
2023-01-13T21:42:55.680Z,10.13
2023-01-13T21:45:41.305Z,16.85
2023-01-13T21:48:08.072Z,9.60
2023-01-13T21:50:36.403Z,15.68
2023-01-13T21:53:03.595Z,19.33
2023-01-13T21:55:31.329Z,20.27
2023-01-13T21:58:14.447Z,17.77
2023-01-13T22:00:43.611Z,17.55
2023-01-13T22:03:11.772Z,20.50
2023-01-13T22:05:38.977Z,21.58
2023-01-13T22:08:06.097Z,16.42
2023-01-13T22:10:32.975Z,15.63
2023-01-13T22:13:22.650Z,18.80
2023-01-13T22:15:49.679Z,15.80
2023-01-13T22:18:18.336Z,15.50
2023-01-13T22:20:45.726Z,15.77
2023-01-13T22:23:12.693Z,12.55
2023-01-13T22:25:39.410Z,8.25
2023-01-13T22:28:09.192Z,9.98
2023-01-13T22:30:36.029Z,8.80
2023-01-13T22:33:02.986Z,7.55
2023-01-13T22:35:30.012Z,10.32
2023-01-13T22:37:56.908Z,9.40
2023-01-13T22:40:23.642Z,7.82
2023-01-13T22:42:50.390Z,11.57
2023-01-13T22:45:17.232Z,7.75
2023-01-13T22:47:44.011Z,9.63
2023-01-13T22:50:12.677Z,14.98
2023-01-13T22:52:39.546Z,13.50
2023-01-13T22:55:06.989Z,18.65
2023-01-13T22:57:47.263Z,14.38
2023-01-13T23:00:23.091Z,18.00
2023-01-13T23:02:49.744Z,17.77
2023-01-13T23:05:16.509Z,17.50
2023-01-13T23:07:43.098Z,16.92
2023-01-13T23:10:10.502Z,18.80
2023-01-13T23:12:37.247Z,22.35
2023-01-13T23:15:04.445Z,19.23
2023-01-13T23:17:31.591Z,16.75
2023-01-13T23:19:58.540Z,17.42
2023-01-13T23:22:25.225Z,18.40
2023-01-13T23:24:52.113Z,19.65
2023-01-13T23:27:18.901Z,24.48
2023-01-13T23:29:45.591Z,17.13
2023-01-13T23:32:12.353Z,22.38
2023-01-13T23:34:39.049Z,21.50
2023-01-13T23:37:05.770Z,20.52
2023-01-13T23:39:32.512Z,23.20
2023-01-13T23:41:59.595Z,20.77
2023-01-13T23:44:26.335Z,24.58
2023-01-13T23:46:53.194Z,24.77
2023-01-13T23:49:20.556Z,23.27
2023-01-13T23:51:50.905Z,25.35
2023-01-13T23:54:18.331Z,28.10
2023-01-13T23:56:45.264Z,22.77
2023-01-13T23:59:11.986Z,24.48
